Time;durP1;ratioP1;P1;durP2;ratioP2;P2;SDS_P1;SDS_P2;PMS_P1;PMS_P2;Temp;Humidity;BMP_temperature;BMP_pressure;BME280_temperature;BME280_humidity;BME280_pressure;Samples;Min_cycle;Max_cycle;Signal;HPM_P1;HPM_P2
2022/06/18 00:01:44;;;;;;;5.05;4.50;;;;;;;;;;1713036;83;21013;-67
2022/06/18 00:04:12;;;;;;;4.95;3.90;;;;;;;;;;1708595;83;21063;-68
2022/06/18 00:06:40;;;;;;;5.62;4.08;;;;;;;;;;1687395;83;21056;-68
2022/06/18 00:09:06;;;;;;;5.35;3.83;;;;;;;;;;1684121;84;21096;-68
2022/06/18 00:14:18;;;;;;;5.30;3.95;;;;;;;;;;1671055;83;21016;-67
2022/06/18 00:16:44;;;;;;;6.33;4.10;;;;;;;;;;1711691;83;21012;-67
2022/06/18 00:19:10;;;;;;;5.37;3.92;;;;;;;;;;1663709;85;21095;-67
2022/06/18 00:21:37;;;;;;;5.08;3.80;;;;;;;;;;1659452;85;21053;-67
2022/06/18 00:24:04;;;;;;;5.80;3.95;;;;;;;;;;1688919;83;21020;-67
2022/06/18 00:26:31;;;;;;;5.15;4.00;;;;;;;;;;1686591;83;21129;-67
2022/06/18 00:28:57;;;;;;;4.58;3.80;;;;;;;;;;1715695;82;21020;-66
2022/06/18 00:31:23;;;;;;;5.55;3.80;;;;;;;;;;1721404;81;20996;-66
2022/06/18 00:33:49;;;;;;;4.12;3.62;;;;;;;;;;1737477;81;21550;-66
2022/06/18 00:36:16;;;;;;;4.37;3.58;;;;;;;;;;1726731;81;21059;-67
2022/06/18 00:38:44;;;;;;;4.80;4.10;;;;;;;;;;1735919;81;21009;-67
2022/06/18 00:41:15;;;;;;;6.25;3.67;;;;;;;;;;1719111;82;21560;-67
2022/06/18 00:43:42;;;;;;;5.90;4.00;;;;;;;;;;1747046;81;21504;-67
2022/06/18 00:46:15;;;;;;;4.30;3.90;;;;;;;;;;1725660;81;21075;-67
2022/06/18 00:49:00;;;;;;;5.00;4.00;;;;;;;;;;1758733;81;21102;-67
2022/06/18 00:51:32;;;;;;;4.00;3.60;;;;;;;;;;1748447;81;21025;-67
2022/06/18 00:54:12;;;;;;;5.42;4.45;;;;;;;;;;1745161;81;20981;-67
2022/06/18 00:56:40;;;;;;;5.85;4.05;;;;;;;;;;1719673;81;21115;-67
2022/06/18 00:59:11;;;;;;;6.78;4.20;;;;;;;;;;1722188;81;21615;-68
2022/06/18 01:04:28;;;;;;;4.87;4.22;;;;;;;;;;1752254;80;76338;-67
2022/06/18 01:06:58;;;;;;;6.00;4.70;;;;;;;;;;1767893;80;21051;-67
2022/06/18 01:09:26;;;;;;;7.15;4.15;;;;;;;;;;1768650;80;21024;-67
2022/06/18 01:11:53;;;;;;;4.80;4.30;;;;;;;;;;1764488;81;21037;-67
2022/06/18 01:14:19;;;;;;;5.55;4.20;;;;;;;;;;1735153;81;21570;-67
2022/06/18 01:16:47;;;;;;;5.08;3.83;;;;;;;;;;1764437;81;21008;-66
2022/06/18 01:19:27;;;;;;;5.15;4.40;;;;;;;;;;1763595;80;21058;-66
2022/06/18 01:22:01;;;;;;;4.65;3.85;;;;;;;;;;1768088;80;20992;-66
2022/06/18 01:24:34;;;;;;;4.25;3.80;;;;;;;;;;1736489;80;21068;-67
2022/06/18 01:27:01;;;;;;;4.45;3.85;;;;;;;;;;1731999;81;20980;-67
2022/06/18 01:29:27;;;;;;;4.60;3.62;;;;;;;;;;1726080;83;21041;-67
2022/06/18 01:31:53;;;;;;;4.37;3.98;;;;;;;;;;1697016;83;21068;-66
2022/06/18 01:34:21;;;;;;;5.12;3.65;;;;;;;;;;1684973;83;21046;-67
2022/06/18 01:36:49;;;;;;;5.83;3.87;;;;;;;;;;1751027;82;21072;-67
2022/06/18 01:39:18;;;;;;;6.42;3.65;;;;;;;;;;1749936;82;21048;-67
2022/06/18 01:41:52;;;;;;;5.65;3.95;;;;;;;;;;1750779;82;21018;-67
2022/06/18 01:44:22;;;;;;;4.58;4.10;;;;;;;;;;1737163;81;21539;-67
2022/06/18 01:46:49;;;;;;;4.67;3.55;;;;;;;;;;1763468;80;20992;-67
2022/06/18 01:49:18;;;;;;;4.53;3.62;;;;;;;;;;1763093;81;21040;-68
2022/06/18 01:51:47;;;;;;;4.53;4.00;;;;;;;;;;1731252;81;21543;-67
2022/06/18 01:54:13;;;;;;;4.12;3.55;;;;;;;;;;1761545;80;21630;-68
2022/06/18 01:56:42;;;;;;;4.80;3.90;;;;;;;;;;1727653;83;21035;-68
2022/06/18 01:59:12;;;;;;;5.92;4.37;;;;;;;;;;1760989;81;21040;-68
2022/06/18 02:01:41;;;;;;;3.95;3.55;;;;;;;;;;1744150;81;21042;-67
2022/06/18 02:04:07;;;;;;;5.12;3.87;;;;;;;;;;1738059;79;21076;-67
2022/06/18 02:06:34;;;;;;;4.47;3.65;;;;;;;;;;1736674;82;21021;-67
2022/06/18 02:09:01;;;;;;;5.05;3.98;;;;;;;;;;1729212;82;21062;-67
2022/06/18 02:11:27;;;;;;;5.55;3.90;;;;;;;;;;1732880;82;20992;-67
2022/06/18 02:13:57;;;;;;;4.90;3.85;;;;;;;;;;1742946;82;21674;-67
2022/06/18 02:16:25;;;;;;;4.65;3.70;;;;;;;;;;1744454;81;21094;-67
2022/06/18 02:18:51;;;;;;;4.22;3.75;;;;;;;;;;1749237;82;21023;-67
2022/06/18 02:21:20;;;;;;;6.95;4.12;;;;;;;;;;1749078;82;21507;-67
2022/06/18 02:23:47;;;;;;;5.87;3.60;;;;;;;;;;1743279;81;21026;-68
2022/06/18 02:26:13;;;;;;;4.83;3.98;;;;;;;;;;1745309;82;20981;-68
2022/06/18 02:28:40;;;;;;;4.45;3.90;;;;;;;;;;1744545;81;21049;-67
2022/06/18 02:31:16;;;;;;;4.65;3.83;;;;;;;;;;1730011;81;21001;-67
2022/06/18 02:33:44;;;;;;;4.97;3.92;;;;;;;;;;1739944;81;21020;-67
2022/06/18 02:36:15;;;;;;;4.80;3.98;;;;;;;;;;1744816;82;21069;-67
2022/06/18 02:38:43;;;;;;;7.12;4.42;;;;;;;;;;1739080;82;21030;-67
2022/06/18 02:41:10;;;;;;;4.47;3.92;;;;;;;;;;1753150;82;21065;-67
2022/06/18 02:43:36;;;;;;;4.03;3.62;;;;;;;;;;1744029;81;21031;-67
2022/06/18 02:46:02;;;;;;;5.17;3.65;;;;;;;;;;1743374;81;21544;-67
2022/06/18 02:48:31;;;;;;;4.47;4.00;;;;;;;;;;1745786;82;20990;-67
2022/06/18 02:50:58;;;;;;;4.90;4.28;;;;;;;;;;1743740;82;21046;-67
2022/06/18 02:53:25;;;;;;;6.33;4.33;;;;;;;;;;1744227;82;21572;-67
2022/06/18 02:55:52;;;;;;;5.65;4.55;;;;;;;;;;1737413;82;21059;-68
2022/06/18 02:58:20;;;;;;;5.45;4.53;;;;;;;;;;1737801;82;21017;-67
2022/06/18 03:00:47;;;;;;;5.75;5.08;;;;;;;;;;1737499;81;21068;-67
2022/06/18 03:03:14;;;;;;;5.65;4.78;;;;;;;;;;1739465;81;21161;-66
2022/06/18 03:05:41;;;;;;;6.20;5.58;;;;;;;;;;1735381;82;21040;-68
2022/06/18 03:08:07;;;;;;;6.80;6.10;;;;;;;;;;1734301;82;21049;-67
2022/06/18 03:13:20;;;;;;;7.00;6.30;;;;;;;;;;1727614;80;21025;-68
2022/06/18 03:15:50;;;;;;;8.53;5.92;;;;;;;;;;1712935;82;21017;-68
2022/06/18 03:18:18;;;;;;;8.10;6.60;;;;;;;;;;1740712;82;21060;-67
2022/06/18 03:20:49;;;;;;;8.00;6.53;;;;;;;;;;1721386;82;21063;-68
2022/06/18 03:23:16;;;;;;;6.97;6.28;;;;;;;;;;1752818;82;20998;-67
2022/06/18 03:25:43;;;;;;;8.95;6.33;;;;;;;;;;1720877;82;21029;-68
2022/06/18 03:28:11;;;;;;;7.92;6.97;;;;;;;;;;1742128;80;21096;-67
2022/06/18 03:30:41;;;;;;;7.90;6.92;;;;;;;;;;1733599;82;21068;-67
2022/06/18 03:33:07;;;;;;;8.20;7.28;;;;;;;;;;1737164;82;21032;-67
2022/06/18 03:35:33;;;;;;;9.95;6.92;;;;;;;;;;1751028;82;21094;-67
2022/06/18 03:37:59;;;;;;;9.43;6.30;;;;;;;;;;1738499;82;21073;-67
2022/06/18 03:40:26;;;;;;;10.68;7.87;;;;;;;;;;1743971;82;21096;-67
2022/06/18 03:42:52;;;;;;;10.55;7.92;;;;;;;;;;1747230;81;21505;-67
2022/06/18 03:45:19;;;;;;;9.40;7.58;;;;;;;;;;1718036;82;21073;-67
2022/06/18 03:47:46;;;;;;;9.68;7.20;;;;;;;;;;1749835;82;21112;-67
2022/06/18 03:50:14;;;;;;;11.12;9.85;;;;;;;;;;1743998;82;21005;-67
2022/06/18 03:52:41;;;;;;;11.30;8.30;;;;;;;;;;1751724;81;21005;-67
2022/06/18 03:55:09;;;;;;;10.70;8.38;;;;;;;;;;1742152;81;21065;-67
2022/06/18 03:57:36;;;;;;;10.93;8.60;;;;;;;;;;1735057;81;21056;-67
2022/06/18 04:00:03;;;;;;;9.00;7.95;;;;;;;;;;1746630;82;20982;-67
2022/06/18 04:02:30;;;;;;;9.85;8.78;;;;;;;;;;1734834;82;21244;-66
2022/06/18 04:04:57;;;;;;;11.35;8.38;;;;;;;;;;1745904;81;21505;-67
2022/06/18 04:07:23;;;;;;;9.45;8.45;;;;;;;;;;1771033;81;21048;-67
2022/06/18 04:10:01;;;;;;;10.32;8.45;;;;;;;;;;1730723;82;21062;-67
2022/06/18 04:12:28;;;;;;;9.98;9.08;;;;;;;;;;1737526;81;21010;-67
2022/06/18 04:15:10;;;;;;;9.05;7.37;;;;;;;;;;1732761;82;21040;-67
2022/06/18 04:17:44;;;;;;;10.48;9.40;;;;;;;;;;1728767;83;21057;-67
2022/06/18 04:20:13;;;;;;;9.75;8.70;;;;;;;;;;1732781;82;20986;-67
2022/06/18 04:22:41;;;;;;;10.25;8.63;;;;;;;;;;1730131;82;21029;-67
2022/06/18 04:25:09;;;;;;;9.25;8.28;;;;;;;;;;1728256;82;21009;-67
2022/06/18 04:27:35;;;;;;;14.23;9.48;;;;;;;;;;1723574;81;21057;-67
2022/06/18 04:30:01;;;;;;;11.40;8.98;;;;;;;;;;1732387;82;21049;-67
2022/06/18 04:32:30;;;;;;;10.08;9.08;;;;;;;;;;1738733;81;21037;-67
2022/06/18 04:34:56;;;;;;;11.97;10.72;;;;;;;;;;1714887;82;20976;-67
2022/06/18 04:37:24;;;;;;;9.58;8.40;;;;;;;;;;1740655;82;21576;-67
2022/06/18 04:39:57;;;;;;;11.78;8.40;;;;;;;;;;1730804;82;21005;-67
2022/06/18 04:42:25;;;;;;;9.68;8.00;;;;;;;;;;1740132;81;20993;-67
2022/06/18 04:44:54;;;;;;;12.07;9.03;;;;;;;;;;1738690;81;21493;-67
2022/06/18 04:47:40;;;;;;;9.68;8.63;;;;;;;;;;1745370;82;21540;-67
2022/06/18 04:50:09;;;;;;;10.72;9.73;;;;;;;;;;1747012;81;21053;-67
2022/06/18 04:52:37;;;;;;;12.50;9.98;;;;;;;;;;1747087;81;21016;-67
2022/06/18 04:55:03;;;;;;;10.80;9.68;;;;;;;;;;1746580;81;20998;-67
2022/06/18 04:57:32;;;;;;;11.90;9.15;;;;;;;;;;1741708;82;21022;-67
2022/06/18 04:59:58;;;;;;;11.08;9.83;;;;;;;;;;1740319;81;21048;-67
2022/06/18 05:02:26;;;;;;;11.45;8.65;;;;;;;;;;1744618;81;21583;-67
2022/06/18 05:05:08;;;;;;;11.90;10.40;;;;;;;;;;1712409;82;21125;-66
2022/06/18 05:07:41;;;;;;;9.80;8.30;;;;;;;;;;1727171;82;21329;-66
2022/06/18 05:10:16;;;;;;;11.33;10.13;;;;;;;;;;1707582;82;21032;-66
2022/06/18 05:12:44;;;;;;;12.18;9.40;;;;;;;;;;1731065;82;21012;-66
2022/06/18 05:15:18;;;;;;;10.40;9.30;;;;;;;;;;1727736;82;21022;-67
2022/06/18 05:17:45;;;;;;;12.30;9.35;;;;;;;;;;1728744;81;21465;-66
2022/06/18 05:20:16;;;;;;;11.57;10.38;;;;;;;;;;1717259;83;21053;-67
2022/06/18 05:22:42;;;;;;;10.88;9.78;;;;;;;;;;1717337;83;21009;-67
2022/06/18 05:25:09;;;;;;;11.68;10.48;;;;;;;;;;1728392;82;21037;-66
2022/06/18 05:27:35;;;;;;;10.53;9.28;;;;;;;;;;1733853;82;20985;-66
2022/06/18 05:30:04;;;;;;;11.18;9.20;;;;;;;;;;1740081;82;21073;-66
2022/06/18 05:32:32;;;;;;;13.15;11.63;;;;;;;;;;1727724;81;21030;-66
2022/06/18 05:35:00;;;;;;;12.20;10.88;;;;;;;;;;1730172;82;21001;-66
2022/06/18 05:37:27;;;;;;;12.23;10.43;;;;;;;;;;1734441;82;20989;-68
2022/06/18 05:39:53;;;;;;;10.88;9.00;;;;;;;;;;1737745;82;21488;-68
2022/06/18 05:42:21;;;;;;;10.85;8.68;;;;;;;;;;1734558;82;21029;-67
2022/06/18 05:44:47;;;;;;;12.95;10.30;;;;;;;;;;1737728;82;21551;-68
2022/06/18 05:47:15;;;;;;;11.80;10.60;;;;;;;;;;1742457;81;20981;-67
2022/06/18 05:49:41;;;;;;;11.57;9.38;;;;;;;;;;1737935;82;21033;-68
2022/06/18 05:52:08;;;;;;;11.35;10.25;;;;;;;;;;1730903;82;21524;-68
2022/06/18 05:54:34;;;;;;;11.55;8.93;;;;;;;;;;1730347;82;20993;-67
2022/06/18 05:57:08;;;;;;;11.35;9.78;;;;;;;;;;1727582;82;21033;-68
2022/06/18 05:59:39;;;;;;;9.25;7.20;;;;;;;;;;1728924;82;21559;-68
2022/06/18 06:02:09;;;;;;;12.07;8.58;;;;;;;;;;1742010;81;21048;-67
2022/06/18 06:04:35;;;;;;;11.35;8.93;;;;;;;;;;1741255;79;22374;-68
2022/06/18 06:07:03;;;;;;;11.20;9.08;;;;;;;;;;1726692;81;21041;-67
2022/06/18 06:12:15;;;;;;;9.13;8.15;;;;;;;;;;1740478;82;21569;-67
2022/06/18 06:14:42;;;;;;;9.40;7.20;;;;;;;;;;1737516;82;21066;-66
2022/06/18 06:17:10;;;;;;;9.68;8.45;;;;;;;;;;1734741;81;21072;-66
2022/06/18 06:19:36;;;;;;;9.43;8.53;;;;;;;;;;1739998;81;21072;-67
2022/06/18 06:22:02;;;;;;;10.15;8.75;;;;;;;;;;1739717;82;21065;-68
2022/06/18 06:24:30;;;;;;;9.80;8.75;;;;;;;;;;1745284;81;21026;-68
2022/06/18 06:26:56;;;;;;;8.30;7.47;;;;;;;;;;1744769;82;21060;-69
2022/06/18 06:29:22;;;;;;;8.70;7.47;;;;;;;;;;1741028;82;21040;-68
2022/06/18 06:31:49;;;;;;;9.30;7.65;;;;;;;;;;1745926;81;21025;-68
2022/06/18 06:34:15;;;;;;;9.38;8.00;;;;;;;;;;1742364;82;21020;-70
2022/06/18 06:36:41;;;;;;;10.50;9.08;;;;;;;;;;1741749;82;22137;-71
2022/06/18 06:39:07;;;;;;;10.28;7.22;;;;;;;;;;1740042;81;21078;-69
2022/06/18 06:41:33;;;;;;;8.88;7.75;;;;;;;;;;1746219;81;21068;-69
2022/06/18 06:43:59;;;;;;;8.25;6.87;;;;;;;;;;1746763;82;21014;-68
2022/06/18 06:46:26;;;;;;;9.25;8.35;;;;;;;;;;1745670;81;21024;-68
2022/06/18 06:48:52;;;;;;;9.03;8.10;;;;;;;;;;1741236;82;21028;-70
2022/06/18 06:51:23;;;;;;;9.08;7.80;;;;;;;;;;1746673;82;21582;-68
2022/06/18 06:53:49;;;;;;;9.10;7.55;;;;;;;;;;1747384;81;21102;-68
2022/06/18 06:59:00;;;;;;;8.73;7.22;;;;;;;;;;1747119;82;21112;-69
2022/06/18 07:01:26;;;;;;;8.33;7.45;;;;;;;;;;1747110;82;21010;-69
2022/06/18 07:03:52;;;;;;;9.10;6.83;;;;;;;;;;1742576;79;21056;-69
2022/06/18 07:06:20;;;;;;;9.28;7.97;;;;;;;;;;1723597;81;21079;-69
2022/06/18 07:08:46;;;;;;;8.83;7.50;;;;;;;;;;1737182;82;20994;-69
2022/06/18 07:11:12;;;;;;;8.65;6.42;;;;;;;;;;1729750;82;21055;-69
2022/06/18 07:13:38;;;;;;;7.97;6.10;;;;;;;;;;1733874;82;21047;-68
2022/06/18 07:16:08;;;;;;;6.40;5.42;;;;;;;;;;1727496;81;21022;-67
2022/06/18 07:18:35;;;;;;;8.15;5.97;;;;;;;;;;1735091;81;21029;-68
2022/06/18 07:21:01;;;;;;;8.50;7.12;;;;;;;;;;1738387;81;21011;-68
2022/06/18 07:23:28;;;;;;;8.83;6.03;;;;;;;;;;1745258;81;20988;-69
2022/06/18 07:25:56;;;;;;;7.60;5.47;;;;;;;;;;1743932;81;21004;-69
2022/06/18 07:28:22;;;;;;;7.50;6.28;;;;;;;;;;1745350;81;21039;-68
2022/06/18 07:30:48;;;;;;;7.37;6.17;;;;;;;;;;1733081;81;21508;-68
2022/06/18 07:33:17;;;;;;;7.47;6.20;;;;;;;;;;1737721;81;21007;-67
2022/06/18 07:35:43;;;;;;;8.65;7.33;;;;;;;;;;1749483;81;21478;-68
2022/06/18 07:38:09;;;;;;;8.40;7.47;;;;;;;;;;1735302;81;22291;-69
2022/06/18 07:40:36;;;;;;;8.43;6.97;;;;;;;;;;1735217;80;21076;-70
2022/06/18 07:43:03;;;;;;;10.40;8.23;;;;;;;;;;1734734;81;20953;-68
2022/06/18 07:45:29;;;;;;;8.18;7.00;;;;;;;;;;1740713;80;20985;-68
2022/06/18 07:47:56;;;;;;;9.45;7.20;;;;;;;;;;1736227;80;21052;-69
2022/06/18 07:50:23;;;;;;;9.10;7.37;;;;;;;;;;1733810;82;21036;-69
2022/06/18 07:52:50;;;;;;;10.05;7.30;;;;;;;;;;1744969;81;21010;-69
2022/06/18 07:55:19;;;;;;;9.08;6.83;;;;;;;;;;1737616;80;21111;-69
2022/06/18 07:57:46;;;;;;;9.23;7.35;;;;;;;;;;1744667;80;21050;-69
2022/06/18 08:00:15;;;;;;;8.00;6.78;;;;;;;;;;1732516;82;21044;-69
2022/06/18 08:02:42;;;;;;;8.85;6.30;;;;;;;;;;1735038;79;21080;-70
2022/06/18 08:05:09;;;;;;;6.08;5.40;;;;;;;;;;1745004;80;20961;-68
2022/06/18 08:07:35;;;;;;;7.72;6.12;;;;;;;;;;1745341;80;21051;-68
2022/06/18 08:10:01;;;;;;;5.67;5.12;;;;;;;;;;1727718;82;22089;-68
2022/06/18 08:12:28;;;;;;;5.80;5.22;;;;;;;;;;1742991;80;21024;-69
2022/06/18 08:14:54;;;;;;;6.80;5.17;;;;;;;;;;1730146;81;21033;-69
2022/06/18 08:17:20;;;;;;;8.98;5.22;;;;;;;;;;1750251;80;21011;-69
2022/06/18 08:19:46;;;;;;;6.85;4.72;;;;;;;;;;1762079;80;21021;-70
2022/06/18 08:22:12;;;;;;;7.00;5.50;;;;;;;;;;1732868;80;21071;-69
2022/06/18 08:24:39;;;;;;;6.25;5.65;;;;;;;;;;1749190;82;21016;-70
2022/06/18 08:27:05;;;;;;;5.53;4.50;;;;;;;;;;1756924;80;21089;-70
2022/06/18 08:29:34;;;;;;;5.90;4.97;;;;;;;;;;1746116;80;21044;-70
2022/06/18 08:31:59;;;;;;;6.45;4.10;;;;;;;;;;1756275;80;21041;-70
2022/06/18 08:34:26;;;;;;;6.47;4.58;;;;;;;;;;1742974;80;20991;-69
2022/06/18 08:36:52;;;;;;;5.15;4.03;;;;;;;;;;1748413;80;21059;-70
2022/06/18 08:39:18;;;;;;;6.10;4.45;;;;;;;;;;1740589;80;21036;-70
2022/06/18 08:41:48;;;;;;;5.22;4.40;;;;;;;;;;1763809;80;21472;-70
2022/06/18 08:44:33;;;;;;;5.85;3.80;;;;;;;;;;1782617;80;21065;-69
2022/06/18 08:47:00;;;;;;;6.92;3.50;;;;;;;;;;1748931;82;20996;-69
2022/06/18 08:49:29;;;;;;;15.65;4.62;;;;;;;;;;1749077;82;20985;-70
2022/06/18 08:52:08;;;;;;;5.80;4.00;;;;;;;;;;1749404;82;21052;-69
2022/06/18 08:54:43;;;;;;;7.17;4.20;;;;;;;;;;1749326;82;21053;-69
2022/06/18 08:57:20;;;;;;;7.30;3.98;;;;;;;;;;1749333;82;21026;-69
2022/06/18 08:59:50;;;;;;;4.90;4.28;;;;;;;;;;1749379;82;21060;-69
2022/06/18 09:02:27;;;;;;;4.83;3.47;;;;;;;;;;1748165;81;21108;-69
2022/06/18 09:04:58;;;;;;;7.30;4.05;;;;;;;;;;1750593;82;21044;-70
2022/06/18 09:07:32;;;;;;;6.65;3.75;;;;;;;;;;1764398;81;21030;-70
2022/06/18 09:10:07;;;;;;;5.28;3.12;;;;;;;;;;1765362;81;21062;-70
2022/06/18 09:12:35;;;;;;;4.60;2.95;;;;;;;;;;1765453;80;21578;-69
2022/06/18 09:16:56;;;;;;;10.08;3.70;;;;;;;;;;1819881;79;23187;-70
2022/06/18 09:19:22;;;;;;;4.35;2.77;;;;;;;;;;1802471;78;21020;-70
2022/06/18 09:21:55;;;;;;;6.67;4.00;;;;;;;;;;1825121;78;21059;-70
2022/06/18 09:24:23;;;;;;;5.08;4.17;;;;;;;;;;1825443;78;21056;-71
2022/06/18 09:26:51;;;;;;;6.42;4.17;;;;;;;;;;1776351;78;21048;-71
2022/06/18 09:29:20;;;;;;;4.15;3.60;;;;;;;;;;1761605;81;21096;-70
2022/06/18 09:31:48;;;;;;;4.25;3.15;;;;;;;;;;1761408;80;21030;-70
2022/06/18 09:34:25;;;;;;;4.55;3.40;;;;;;;;;;1760374;81;21062;-70
2022/06/18 09:37:02;;;;;;;6.05;3.20;;;;;;;;;;1761597;78;21028;-70
2022/06/18 09:39:30;;;;;;;3.77;2.72;;;;;;;;;;1758293;81;21063;-70
2022/06/18 09:42:02;;;;;;;6.78;2.87;;;;;;;;;;1758313;81;21103;-70
2022/06/18 09:44:37;;;;;;;3.60;2.90;;;;;;;;;;1758075;81;21063;-70
2022/06/18 09:47:13;;;;;;;3.83;2.95;;;;;;;;;;1758343;81;21063;-70
2022/06/18 09:49:40;;;;;;;6.15;3.12;;;;;;;;;;1758425;81;20996;-71
2022/06/18 09:52:14;;;;;;;3.98;2.90;;;;;;;;;;1758222;81;21508;-70
2022/06/18 09:54:50;;;;;;;4.33;3.90;;;;;;;;;;1816505;78;21184;-70
2022/06/18 09:57:17;;;;;;;4.55;3.55;;;;;;;;;;1825308;78;21032;-70
2022/06/18 09:59:44;;;;;;;5.10;3.50;;;;;;;;;;1825403;78;21021;-71
2022/06/18 10:02:13;;;;;;;5.53;3.95;;;;;;;;;;1807964;78;21060;-70
2022/06/18 10:07:24;;;;;;;5.15;3.80;;;;;;;;;;1761772;81;21032;-69
2022/06/18 10:09:54;;;;;;;3.83;3.33;;;;;;;;;;1757367;80;21072;-72
2022/06/18 10:12:24;;;;;;;4.05;3.65;;;;;;;;;;1793024;80;21527;-70
2022/06/18 10:14:52;;;;;;;5.17;3.65;;;;;;;;;;1792189;80;21020;-71
2022/06/18 10:17:33;;;;;;;4.00;3.60;;;;;;;;;;1779220;81;21056;-72
2022/06/18 10:20:07;;;;;;;5.87;3.83;;;;;;;;;;1779491;81;21071;-70
2022/06/18 10:22:43;;;;;;;4.20;3.60;;;;;;;;;;1779011;81;21232;-70
2022/06/18 10:25:14;;;;;;;3.90;3.35;;;;;;;;;;1779425;81;21001;-70
2022/06/18 10:28:00;;;;;;;6.37;4.00;;;;;;;;;;1739443;81;21076;-71
2022/06/18 10:30:30;;;;;;;4.17;3.27;;;;;;;;;;1712281;84;21541;-71
2022/06/18 10:33:04;;;;;;;4.20;3.20;;;;;;;;;;1706418;83;21094;-70
2022/06/18 10:35:44;;;;;;;4.83;3.55;;;;;;;;;;1662204;86;21059;-71
2022/06/18 10:38:29;;;;;;;3.95;3.20;;;;;;;;;;1662271;86;21078;-70
2022/06/18 10:40:59;;;;;;;5.10;4.22;;;;;;;;;;1663007;86;21544;-71
2022/06/18 10:43:44;;;;;;;4.47;3.77;;;;;;;;;;1664425;85;21150;-71
2022/06/18 10:46:14;;;;;;;6.53;4.95;;;;;;;;;;1670129;85;21588;-72
2022/06/18 10:48:47;;;;;;;5.78;4.97;;;;;;;;;;1693959;84;21096;-70
2022/06/18 10:51:17;;;;;;;4.65;3.70;;;;;;;;;;1746663;81;21023;-72
2022/06/18 10:53:48;;;;;;;4.87;3.58;;;;;;;;;;1748285;81;21050;-71
2022/06/18 10:56:16;;;;;;;5.60;3.42;;;;;;;;;;1748950;81;20990;-69
2022/06/18 10:58:52;;;;;;;6.47;3.95;;;;;;;;;;1750225;81;21548;-70
2022/06/18 11:01:32;;;;;;;21.00;11.88;;;;;;;;;;1745618;81;21101;-71
2022/06/18 11:04:01;;;;;;;9.95;6.80;;;;;;;;;;1734070;80;21037;-70
2022/06/18 11:06:27;;;;;;;5.60;4.37;;;;;;;;;;1726262;81;21052;-70
2022/06/18 11:08:56;;;;;;;6.12;4.55;;;;;;;;;;1743593;81;21042;-70
2022/06/18 11:11:31;;;;;;;7.03;3.60;;;;;;;;;;1739082;81;21053;-70
2022/06/18 11:14:08;;;;;;;3.67;3.22;;;;;;;;;;1727349;81;21018;-69
2022/06/18 11:16:37;;;;;;;3.77;3.37;;;;;;;;;;1747041;80;21135;-71
2022/06/18 11:19:04;;;;;;;4.10;3.02;;;;;;;;;;1760764;81;21005;-70
2022/06/18 11:21:39;;;;;;;4.05;3.35;;;;;;;;;;1728762;81;21105;-69
2022/06/18 11:24:07;;;;;;;6.10;3.40;;;;;;;;;;1744811;80;21005;-72
2022/06/18 11:26:33;;;;;;;6.75;3.27;;;;;;;;;;1753861;81;21590;-68
2022/06/18 11:29:01;;;;;;;3.65;3.02;;;;;;;;;;1760365;81;22103;-70
2022/06/18 11:31:32;;;;;;;4.60;3.37;;;;;;;;;;1763490;80;21036;-69
2022/06/18 11:34:00;;;;;;;4.62;3.20;;;;;;;;;;1761336;80;20996;-69
2022/06/18 11:36:37;;;;;;;3.52;2.60;;;;;;;;;;1761023;80;21071;-70
2022/06/18 11:39:03;;;;;;;3.70;3.05;;;;;;;;;;1762050;80;20991;-69
2022/06/18 11:41:33;;;;;;;3.52;3.02;;;;;;;;;;1760856;80;21146;-70
2022/06/18 11:44:01;;;;;;;3.98;2.65;;;;;;;;;;1763908;80;21052;-70
2022/06/18 11:46:29;;;;;;;4.97;3.47;;;;;;;;;;1760103;81;22186;-70
2022/06/18 11:48:59;;;;;;;7.62;5.28;;;;;;;;;;1761405;80;21003;-69
2022/06/18 11:51:30;;;;;;;10.25;8.58;;;;;;;;;;1760510;80;21048;-69
2022/06/18 11:54:18;;;;;;;5.40;4.67;;;;;;;;;;1769257;81;21045;-69
2022/06/18 11:56:49;;;;;;;5.17;4.08;;;;;;;;;;1755821;80;21056;-67
2022/06/18 11:59:16;;;;;;;6.28;5.28;;;;;;;;;;1761023;80;21027;-72
2022/06/18 12:01:45;;;;;;;5.03;3.40;;;;;;;;;;1755223;80;21104;-72
2022/06/18 12:04:13;;;;;;;4.30;3.30;;;;;;;;;;1753814;80;21013;-72
2022/06/18 12:06:52;;;;;;;12.63;9.45;;;;;;;;;;1762406;80;21056;-71
2022/06/18 12:09:19;;;;;;;5.35;4.40;;;;;;;;;;1760735;80;20993;-72
2022/06/18 12:12:07;;;;;;;6.90;4.72;;;;;;;;;;1766691;80;21083;-72
2022/06/18 12:14:54;;;;;;;5.97;4.22;;;;;;;;;;1756156;80;21076;-71
2022/06/18 12:17:25;;;;;;;4.00;3.22;;;;;;;;;;1678991;84;21022;-71
2022/06/18 12:20:11;;;;;;;3.58;2.75;;;;;;;;;;1711721;84;20998;-72
2022/06/18 12:22:43;;;;;;;5.03;3.90;;;;;;;;;;1743307;82;21073;-72
2022/06/18 12:25:20;;;;;;;4.17;3.10;;;;;;;;;;1751027;81;21081;-72
2022/06/18 12:27:48;;;;;;;4.35;2.95;;;;;;;;;;1733395;81;21045;-72
2022/06/18 12:30:16;;;;;;;6.20;3.10;;;;;;;;;;1743039;81;21021;-73
2022/06/18 12:32:44;;;;;;;4.20;3.00;;;;;;;;;;1747199;81;21048;-71
2022/06/18 12:35:12;;;;;;;3.77;3.10;;;;;;;;;;1746812;81;21068;-72
2022/06/18 12:37:59;;;;;;;3.83;2.95;;;;;;;;;;1746407;82;21085;-71
2022/06/18 12:40:36;;;;;;;3.50;2.62;;;;;;;;;;1747916;81;21103;-72
2022/06/18 12:43:11;;;;;;;3.37;2.87;;;;;;;;;;1746052;81;21607;-72
2022/06/18 12:45:44;;;;;;;3.42;2.70;;;;;;;;;;1747775;82;20989;-72
2022/06/18 12:48:12;;;;;;;4.37;2.35;;;;;;;;;;1745607;82;21048;-73
2022/06/18 12:50:43;;;;;;;3.33;2.35;;;;;;;;;;1744275;82;22093;-72
2022/06/18 12:53:14;;;;;;;4.95;3.60;;;;;;;;;;1747696;82;21041;-72
2022/06/18 12:55:45;;;;;;;3.90;3.10;;;;;;;;;;1745852;82;21017;-72
2022/06/18 12:58:27;;;;;;;7.28;2.90;;;;;;;;;;1729386;82;21509;-72
2022/06/18 13:00:55;;;;;;;3.72;2.70;;;;;;;;;;1741403;81;21151;-72
2022/06/18 13:03:40;;;;;;;4.08;2.77;;;;;;;;;;1742130;82;21017;-72
2022/06/18 13:06:11;;;;;;;5.20;2.87;;;;;;;;;;1747667;81;21045;-73
2022/06/18 13:08:39;;;;;;;7.00;2.83;;;;;;;;;;1733161;82;21048;-72
2022/06/18 13:11:25;;;;;;;4.58;2.55;;;;;;;;;;1733077;82;21100;-72
2022/06/18 13:13:53;;;;;;;3.22;2.50;;;;;;;;;;1747969;82;21064;-71
2022/06/18 13:16:21;;;;;;;4.35;2.70;;;;;;;;;;1744611;82;21064;-72
2022/06/18 13:18:48;;;;;;;4.05;2.83;;;;;;;;;;1747109;81;21607;-70
2022/06/18 13:21:14;;;;;;;4.70;2.85;;;;;;;;;;1743035;82;21069;-70
2022/06/18 13:29:25;;;;;;;3.92;2.90;;;;;;;;;;1747094;81;21580;-71
2022/06/18 13:31:56;;;;;;;5.37;3.22;;;;;;;;;;1734176;81;20993;-71
2022/06/18 13:34:24;;;;;;;2.98;2.50;;;;;;;;;;1747918;82;21039;-70
2022/06/18 13:37:04;;;;;;;4.20;2.87;;;;;;;;;;1732942;81;21057;-72
2022/06/18 13:39:35;;;;;;;4.65;3.08;;;;;;;;;;1682819;82;21092;-72
2022/06/18 13:42:03;;;;;;;3.80;2.98;;;;;;;;;;1745623;82;21037;-72
2022/06/18 13:44:37;;;;;;;4.33;2.87;;;;;;;;;;1731961;82;21061;-72
2022/06/18 13:47:08;;;;;;;5.20;3.55;;;;;;;;;;1741072;81;21082;-73
2022/06/18 13:49:36;;;;;;;3.67;2.80;;;;;;;;;;1744821;80;21041;-71
2022/06/18 13:52:05;;;;;;;4.00;2.83;;;;;;;;;;1745029;82;21009;-72
2022/06/18 13:54:40;;;;;;;3.67;2.60;;;;;;;;;;1755458;81;21020;-72
2022/06/18 13:57:07;;;;;;;3.87;2.77;;;;;;;;;;1748619;81;21064;-71
2022/06/18 13:59:34;;;;;;;4.30;3.90;;;;;;;;;;1743426;81;21057;-72
2022/06/18 14:02:01;;;;;;;3.47;3.15;;;;;;;;;;1743585;81;21080;-72
2022/06/18 14:04:29;;;;;;;3.60;2.87;;;;;;;;;;1741037;81;21703;-72
2022/06/18 14:06:56;;;;;;;3.52;2.62;;;;;;;;;;1740781;81;21068;-72
2022/06/18 14:09:23;;;;;;;4.60;2.85;;;;;;;;;;1744687;81;21547;-71
2022/06/18 14:11:57;;;;;;;2.92;2.50;;;;;;;;;;1741369;81;21024;-72
2022/06/18 14:14:27;;;;;;;3.02;2.52;;;;;;;;;;1742869;81;21056;-72
2022/06/18 14:17:07;;;;;;;2.45;2.20;;;;;;;;;;1746359;81;21047;-72
2022/06/18 14:19:35;;;;;;;2.50;2.20;;;;;;;;;;1751264;81;21061;-72
2022/06/18 14:22:07;;;;;;;3.22;2.37;;;;;;;;;;1756298;81;21025;-71
2022/06/18 14:24:36;;;;;;;3.08;2.27;;;;;;;;;;1751461;81;21066;-73
2022/06/18 14:27:03;;;;;;;9.63;8.63;;;;;;;;;;1753851;81;20988;-72
2022/06/18 14:29:32;;;;;;;7.37;5.95;;;;;;;;;;1754249;81;21063;-71
2022/06/18 14:32:07;;;;;;;3.25;2.67;;;;;;;;;;1751130;81;21044;-72
2022/06/18 14:34:41;;;;;;;3.00;2.40;;;;;;;;;;1753377;81;20981;-72
2022/06/18 14:37:07;;;;;;;2.80;2.10;;;;;;;;;;1749503;81;21002;-70
2022/06/18 14:39:49;;;;;;;3.85;3.08;;;;;;;;;;1752466;81;21583;-72
2022/06/18 14:42:26;;;;;;;3.90;2.50;;;;;;;;;;1752570;81;21020;-72
2022/06/18 14:45:00;;;;;;;3.08;2.15;;;;;;;;;;1754630;81;21852;-73
2022/06/18 14:47:33;;;;;;;3.40;2.08;;;;;;;;;;1758322;81;21055;-72
2022/06/18 14:50:19;;;;;;;2.62;2.22;;;;;;;;;;1755406;81;21189;-71
2022/06/18 14:53:00;;;;;;;3.83;2.42;;;;;;;;;;1752155;81;21055;-71
2022/06/18 14:55:28;;;;;;;2.55;2.30;;;;;;;;;;1752803;81;21092;-71
2022/06/18 14:57:59;;;;;;;2.52;2.17;;;;;;;;;;1754515;81;21091;-71
2022/06/18 15:00:33;;;;;;;2.92;2.10;;;;;;;;;;1750242;81;21537;-70
2022/06/18 15:03:14;;;;;;;3.42;2.50;;;;;;;;;;1750550;80;21108;-70
2022/06/18 15:05:41;;;;;;;3.77;2.80;;;;;;;;;;1747130;81;21118;-70
2022/06/18 15:08:12;;;;;;;8.40;2.70;;;;;;;;;;1756310;81;21184;-70
2022/06/18 15:10:42;;;;;;;2.75;2.10;;;;;;;;;;1756718;81;21083;-71
2022/06/18 15:13:08;;;;;;;2.30;1.92;;;;;;;;;;1756951;81;21049;-72
2022/06/18 15:18:37;;;;;;;4.00;2.37;;;;;;;;;;1756830;81;21056;-71
2022/06/18 15:21:56;;;;;;;2.12;1.92;;;;;;;;;;1756854;81;21080;-71
2022/06/18 15:26:05;;;;;;;2.35;1.98;;;;;;;;;;1747756;81;21047;-72